createdAt,value
2023-03-06T00:00:20.236Z,19.40
2023-03-06T00:01:16.268Z,24.00
2023-03-06T00:02:11.302Z,21.20
2023-03-06T00:03:06.750Z,19.10
2023-03-06T00:04:02.700Z,21.60
2023-03-06T00:04:57.831Z,20.30
2023-03-06T00:05:53.144Z,21.20
2023-03-06T00:06:49.432Z,25.30
2023-03-06T00:07:44.617Z,20.50
2023-03-06T00:08:40.379Z,22.60
2023-03-06T00:09:35.521Z,21.20
2023-03-06T00:10:31.010Z,25.70
2023-03-06T00:11:26.888Z,20.80
2023-03-06T00:12:21.944Z,22.50
2023-03-06T00:13:17.700Z,24.30
2023-03-06T00:14:13.090Z,24.10
2023-03-06T00:15:08.273Z,20.80
2023-03-06T00:16:04.216Z,24.80
2023-03-06T00:16:59.245Z,22.70
2023-03-06T00:17:54.472Z,22.80
2023-03-06T00:18:49.601Z,23.20
2023-03-06T00:19:44.896Z,25.50
2023-03-06T00:20:40.096Z,23.00
2023-03-06T00:21:35.002Z,21.60
2023-03-06T00:22:30.062Z,26.30
2023-03-06T00:23:25.252Z,25.20
2023-03-06T00:24:20.313Z,25.00
2023-03-06T00:25:15.384Z,21.50
2023-03-06T00:26:10.441Z,22.50
2023-03-06T00:27:05.515Z,21.90
2023-03-06T00:28:00.540Z,27.90
2023-03-06T00:28:55.669Z,23.80
2023-03-06T00:29:52.219Z,25.10
2023-03-06T00:30:47.570Z,27.70
2023-03-06T00:31:42.895Z,23.80
2023-03-06T00:32:37.984Z,24.20
2023-03-06T00:33:33.041Z,20.20
2023-03-06T00:34:28.073Z,24.70
2023-03-06T00:35:23.289Z,26.30
2023-03-06T00:36:18.164Z,22.90
2023-03-06T00:37:13.266Z,21.30
2023-03-06T00:38:08.298Z,23.60
2023-03-06T00:39:03.502Z,21.70
2023-03-06T00:39:58.643Z,29.70
2023-03-06T00:40:53.722Z,23.20
2023-03-06T00:41:48.757Z,22.30
2023-03-06T00:42:43.776Z,25.40
2023-03-06T00:43:38.803Z,26.30
2023-03-06T00:44:38.032Z,20.90
2023-03-06T00:45:33.099Z,21.00
2023-03-06T00:46:28.137Z,24.00
2023-03-06T00:47:23.151Z,24.30
2023-03-06T00:48:18.361Z,27.90
2023-03-06T00:49:13.470Z,25.00
2023-03-06T00:50:08.651Z,20.40
2023-03-06T00:51:03.930Z,21.10
2023-03-06T00:51:59.039Z,22.80
2023-03-06T00:52:54.025Z,25.20
2023-03-06T00:53:49.084Z,24.10
2023-03-06T00:54:44.128Z,28.00
2023-03-06T00:55:39.335Z,22.70
2023-03-06T00:56:34.343Z,26.50
2023-03-06T00:57:29.631Z,25.00
2023-03-06T00:58:24.928Z,27.40
2023-03-06T00:59:20.690Z,21.20
2023-03-06T01:00:15.921Z,22.60
2023-03-06T01:01:14.929Z,25.60
2023-03-06T01:02:07.468Z,28.20
2023-03-06T01:03:02.807Z,25.00
2023-03-06T01:03:58.529Z,23.40
2023-03-06T01:04:53.836Z,30.80
2023-03-06T01:05:49.191Z,27.90
2023-03-06T01:06:44.799Z,23.40
2023-03-06T01:07:39.996Z,25.20
2023-03-06T01:08:35.861Z,26.50
2023-03-06T01:09:31.004Z,26.30
2023-03-06T01:10:26.570Z,26.50
2023-03-06T01:11:22.155Z,25.70
2023-03-06T01:12:17.368Z,22.50
2023-03-06T01:13:12.545Z,22.10
2023-03-06T01:14:08.832Z,26.10
2023-03-06T01:15:04.015Z,25.60
2023-03-06T01:16:00.048Z,26.70
2023-03-06T01:16:55.092Z,21.30
2023-03-06T01:17:50.288Z,28.80
2023-03-06T01:18:46.061Z,23.90
2023-03-06T01:19:41.228Z,25.20
2023-03-06T01:20:37.248Z,24.30
2023-03-06T01:21:32.152Z,25.90
2023-03-06T01:22:27.340Z,25.20
2023-03-06T01:23:23.274Z,23.00
2023-03-06T01:24:18.446Z,23.70
2023-03-06T01:25:13.918Z,23.30
2023-03-06T01:26:10.053Z,24.30
2023-03-06T01:27:05.368Z,25.40
2023-03-06T01:28:01.163Z,27.10
2023-03-06T01:28:56.323Z,23.50
2023-03-06T01:29:51.932Z,26.10
2023-03-06T01:30:47.433Z,26.40
2023-03-06T01:31:42.747Z,29.20
2023-03-06T01:32:38.469Z,25.50
2023-03-06T01:33:33.610Z,21.00
2023-03-06T01:34:29.087Z,27.20
2023-03-06T01:35:24.785Z,22.60
2023-03-06T01:36:20.043Z,23.60
2023-03-06T01:37:15.170Z,22.20
2023-03-06T01:38:11.752Z,26.90
2023-03-06T01:39:06.940Z,22.30
2023-03-06T01:40:02.890Z,28.50
2023-03-06T01:40:58.054Z,26.40
2023-03-06T01:41:53.275Z,23.00
2023-03-06T01:42:49.000Z,22.20
2023-03-06T01:43:44.234Z,26.80
2023-03-06T01:44:40.005Z,29.90
2023-03-06T01:45:35.240Z,29.40
2023-03-06T01:46:30.543Z,32.70
2023-03-06T01:47:26.319Z,26.90
2023-03-06T01:48:21.500Z,26.30
2023-03-06T01:49:16.981Z,25.10
2023-03-06T01:50:13.134Z,30.90
2023-03-06T01:51:08.470Z,23.50
2023-03-06T01:52:04.210Z,30.30
2023-03-06T01:52:59.404Z,28.70
2023-03-06T01:53:54.584Z,31.70
2023-03-06T01:54:50.617Z,24.10
2023-03-06T01:55:45.653Z,31.20
2023-03-06T01:56:41.658Z,26.10
2023-03-06T01:57:36.825Z,29.70
2023-03-06T01:58:32.028Z,27.20
2023-03-06T01:59:27.355Z,32.30
2023-03-06T02:00:22.416Z,27.00
2023-03-06T02:01:18.976Z,24.50
2023-03-06T02:02:14.220Z,26.40
2023-03-06T02:03:09.934Z,27.20
2023-03-06T02:04:05.083Z,28.10
2023-03-06T02:05:00.445Z,30.10
2023-03-06T02:05:56.196Z,27.90
2023-03-06T02:06:51.391Z,30.70
2023-03-06T02:07:46.680Z,33.10
2023-03-06T02:08:42.967Z,27.30
2023-03-06T02:09:38.322Z,25.10
2023-03-06T02:10:34.037Z,29.20
2023-03-06T02:11:29.235Z,31.50
2023-03-06T02:12:24.472Z,26.90
2023-03-06T02:13:20.242Z,28.70
2023-03-06T02:14:15.471Z,30.40
2023-03-06T02:15:11.341Z,26.00
2023-03-06T02:16:06.408Z,25.80
2023-03-06T02:17:01.584Z,27.20
2023-03-06T02:17:56.757Z,31.50
2023-03-06T02:18:52.088Z,25.30
2023-03-06T02:19:47.561Z,34.70
2023-03-06T02:20:42.642Z,27.60
2023-03-06T02:21:37.813Z,26.50
2023-03-06T02:22:33.005Z,25.30
2023-03-06T02:23:29.413Z,30.00
2023-03-06T02:24:24.625Z,25.80
2023-03-06T02:25:19.688Z,26.30
2023-03-06T02:26:19.200Z,35.30
2023-03-06T02:27:14.339Z,29.90
2023-03-06T02:28:09.681Z,29.20
2023-03-06T02:29:04.948Z,27.80
2023-03-06T02:30:00.130Z,27.20
2023-03-06T02:30:55.129Z,23.20
2023-03-06T02:31:50.087Z,25.70
2023-03-06T02:32:45.153Z,31.70
2023-03-06T02:33:40.232Z,26.90
2023-03-06T02:34:35.284Z,30.10
2023-03-06T02:35:30.414Z,30.60
2023-03-06T02:36:25.367Z,31.90
2023-03-06T02:37:20.447Z,25.60
2023-03-06T02:38:15.498Z,31.20
2023-03-06T02:39:10.658Z,28.90
2023-03-06T02:40:05.918Z,27.30
2023-03-06T02:41:00.977Z,28.00
2023-03-06T02:41:56.031Z,29.90
2023-03-06T02:42:51.057Z,28.40
2023-03-06T02:43:46.116Z,28.00
2023-03-06T02:44:41.245Z,29.30
2023-03-06T02:45:36.272Z,28.90
2023-03-06T02:46:31.338Z,25.70
2023-03-06T02:47:26.354Z,25.50
2023-03-06T02:48:21.431Z,29.30
2023-03-06T02:49:16.630Z,30.50
2023-03-06T02:50:12.680Z,28.90
2023-03-06T02:51:07.610Z,29.60
2023-03-06T02:52:02.645Z,28.90
2023-03-06T02:52:57.713Z,31.60
2023-03-06T02:53:52.778Z,28.80
2023-03-06T02:54:47.815Z,32.70
2023-03-06T02:55:42.901Z,31.90
2023-03-06T02:56:38.069Z,30.70
2023-03-06T02:57:33.295Z,27.80
2023-03-06T02:58:28.273Z,33.70
2023-03-06T02:59:23.353Z,31.80
2023-03-06T03:00:18.474Z,31.90
2023-03-06T03:01:13.495Z,25.20
2023-03-06T03:02:08.506Z,30.40
2023-03-06T03:03:04.002Z,32.60
2023-03-06T03:03:59.594Z,33.10
2023-03-06T03:04:54.926Z,32.80
2023-03-06T03:05:50.582Z,25.80
2023-03-06T03:06:45.742Z,29.70
2023-03-06T03:07:41.032Z,29.40
2023-03-06T03:08:36.790Z,33.00
2023-03-06T03:09:31.958Z,30.90
2023-03-06T03:10:27.298Z,34.70
2023-03-06T03:11:23.554Z,29.80
2023-03-06T03:12:18.776Z,32.80
2023-03-06T03:13:14.496Z,34.10
2023-03-06T03:14:09.770Z,35.00
2023-03-06T03:15:05.144Z,32.10
2023-03-06T03:16:00.844Z,26.20
2023-03-06T03:16:55.917Z,23.80
2023-03-06T03:17:51.793Z,30.30
2023-03-06T03:18:46.933Z,32.40
2023-03-06T03:19:42.291Z,27.00
2023-03-06T03:20:38.200Z,29.10
2023-03-06T03:21:33.262Z,30.00
2023-03-06T03:22:28.412Z,32.00
2023-03-06T03:23:24.856Z,29.90
2023-03-06T03:24:20.067Z,31.10
2023-03-06T03:25:15.797Z,32.20
2023-03-06T03:26:10.995Z,29.30
2023-03-06T03:27:06.179Z,30.70
2023-03-06T03:28:01.928Z,29.90
2023-03-06T03:28:57.254Z,25.70
2023-03-06T03:29:53.103Z,28.10
2023-03-06T03:30:48.198Z,25.90
2023-03-06T03:31:43.383Z,30.40
2023-03-06T03:32:39.147Z,26.90
2023-03-06T03:33:34.306Z,32.30
2023-03-06T03:34:29.520Z,32.70
2023-03-06T03:35:24.603Z,30.40
2023-03-06T03:36:19.648Z,26.10
2023-03-06T03:37:14.739Z,26.30
2023-03-06T03:38:09.822Z,32.70
2023-03-06T03:39:04.884Z,28.50
2023-03-06T03:40:04.421Z,31.60
2023-03-06T03:40:59.399Z,31.20
2023-03-06T03:41:54.990Z,32.00
2023-03-06T03:42:50.708Z,33.10
2023-03-06T03:43:45.880Z,28.40
2023-03-06T03:44:41.058Z,30.50
2023-03-06T03:45:37.652Z,36.20
2023-03-06T03:46:32.937Z,29.50
2023-03-06T03:47:28.727Z,33.80
2023-03-06T03:48:23.919Z,31.10
2023-03-06T03:49:19.133Z,31.40
2023-03-06T03:50:14.284Z,35.20
2023-03-06T03:51:09.598Z,31.20
2023-03-06T03:52:04.660Z,32.10
2023-03-06T03:52:59.701Z,28.60
2023-03-06T03:53:54.752Z,29.00
2023-03-06T03:54:49.826Z,31.00
2023-03-06T03:55:44.855Z,32.60
2023-03-06T03:56:39.925Z,31.70
2023-03-06T03:57:40.483Z,30.80
2023-03-06T03:58:35.940Z,32.50
2023-03-06T03:59:31.193Z,30.40
2023-03-06T04:00:26.230Z,33.90
2023-03-06T04:01:21.273Z,33.10
2023-03-06T04:02:16.394Z,32.70
2023-03-06T04:03:11.425Z,33.50
2023-03-06T04:04:06.468Z,33.70
2023-03-06T04:05:01.607Z,35.80
2023-03-06T04:05:56.560Z,28.30
2023-03-06T04:06:51.634Z,29.90
2023-03-06T04:07:46.691Z,35.50
2023-03-06T04:08:41.719Z,32.00
2023-03-06T04:09:36.950Z,29.00
2023-03-06T04:10:31.850Z,35.70
2023-03-06T04:11:26.921Z,26.10
2023-03-06T04:12:21.970Z,32.20
2023-03-06T04:13:17.034Z,28.00
2023-03-06T04:14:12.051Z,30.30
2023-03-06T04:15:07.426Z,30.20
2023-03-06T04:16:02.226Z,31.80
2023-03-06T04:17:00.957Z,36.20
2023-03-06T04:17:56.003Z,30.70
2023-03-06T04:18:51.051Z,35.40
2023-03-06T04:19:46.266Z,33.50
2023-03-06T04:20:41.247Z,30.40
2023-03-06T04:21:36.275Z,35.90
2023-03-06T04:22:31.325Z,30.20
2023-03-06T04:23:26.337Z,32.00
2023-03-06T04:24:21.435Z,30.10
2023-03-06T04:25:16.493Z,31.70
2023-03-06T04:26:11.554Z,35.70
2023-03-06T04:27:06.616Z,34.30
2023-03-06T04:28:01.643Z,33.90
2023-03-06T04:28:56.713Z,30.90
2023-03-06T04:29:51.794Z,35.00
2023-03-06T04:30:46.837Z,31.30
2023-03-06T04:31:41.917Z,31.50
2023-03-06T04:32:36.999Z,33.10
2023-03-06T04:33:34.479Z,34.30
2023-03-06T04:34:29.544Z,32.60
2023-03-06T04:35:24.610Z,35.10
2023-03-06T04:36:19.631Z,33.50
2023-03-06T04:37:14.689Z,35.00
2023-03-06T04:38:09.872Z,32.80
2023-03-06T04:39:05.136Z,32.30
2023-03-06T04:39:59.940Z,32.00
2023-03-06T04:40:55.000Z,32.30
2023-03-06T04:41:50.050Z,34.60
2023-03-06T04:42:45.161Z,33.00
2023-03-06T04:43:40.781Z,30.70
2023-03-06T04:44:36.095Z,29.30
2023-03-06T04:45:31.160Z,26.40
2023-03-06T04:46:26.344Z,34.90
2023-03-06T04:47:21.783Z,31.00
2023-03-06T04:48:16.941Z,33.30
2023-03-06T04:49:12.423Z,36.20
2023-03-06T04:50:07.455Z,33.70
2023-03-06T04:51:02.676Z,34.50
2023-03-06T04:51:57.845Z,31.80
2023-03-06T04:52:53.135Z,34.10
2023-03-06T04:53:48.215Z,31.10
2023-03-06T04:54:43.413Z,37.40
2023-03-06T04:55:38.593Z,39.20
2023-03-06T04:56:33.625Z,33.60
2023-03-06T04:57:28.619Z,28.60
2023-03-06T04:58:23.673Z,37.40
2023-03-06T04:59:19.023Z,30.70
2023-03-06T05:00:14.052Z,31.00
2023-03-06T05:01:09.144Z,29.60
2023-03-06T05:02:04.255Z,30.50
2023-03-06T05:02:59.198Z,27.30
2023-03-06T05:03:54.265Z,33.50
2023-03-06T05:04:49.292Z,31.80
2023-03-06T05:05:44.355Z,32.90
2023-03-06T05:06:39.435Z,33.10
2023-03-06T05:07:34.496Z,34.30
2023-03-06T05:08:29.587Z,33.60
2023-03-06T05:09:24.923Z,32.50
2023-03-06T05:10:19.765Z,33.40
2023-03-06T05:11:14.831Z,32.40
2023-03-06T05:12:09.907Z,32.20
2023-03-06T05:13:04.940Z,31.70
2023-03-06T05:14:00.236Z,34.40
2023-03-06T05:14:55.153Z,32.60
2023-03-06T05:15:50.244Z,28.10
2023-03-06T05:16:47.924Z,34.20
2023-03-06T05:17:43.109Z,31.70
2023-03-06T05:18:38.247Z,32.30
2023-03-06T05:19:33.167Z,34.90
2023-03-06T05:20:28.280Z,34.50
2023-03-06T05:21:23.327Z,33.00
2023-03-06T05:22:18.400Z,35.00
2023-03-06T05:23:13.608Z,38.70
2023-03-06T05:24:08.908Z,36.20
2023-03-06T05:25:03.664Z,36.60
2023-03-06T05:25:58.745Z,37.30
2023-03-06T05:26:53.823Z,38.70
2023-03-06T05:27:48.909Z,34.80
2023-03-06T05:28:44.084Z,29.50
2023-03-06T05:29:39.316Z,35.20
2023-03-06T05:30:35.066Z,38.20
2023-03-06T05:31:30.351Z,32.00
2023-03-06T05:32:26.098Z,34.20
2023-03-06T05:33:21.260Z,34.90
2023-03-06T05:34:16.764Z,32.50
2023-03-06T05:35:12.421Z,38.40
2023-03-06T05:36:07.692Z,29.50
2023-03-06T05:37:02.854Z,33.40
2023-03-06T05:37:59.141Z,32.00
2023-03-06T05:38:54.556Z,32.40
2023-03-06T05:39:50.153Z,36.30
2023-03-06T05:40:45.387Z,32.90
2023-03-06T05:41:40.574Z,33.40
2023-03-06T05:42:36.372Z,29.40
2023-03-06T05:43:31.757Z,33.50
2023-03-06T05:44:27.548Z,35.10
2023-03-06T05:45:22.663Z,34.80
2023-03-06T05:46:18.016Z,39.20
2023-03-06T05:47:13.749Z,30.70
2023-03-06T05:48:09.054Z,32.50
2023-03-06T05:49:04.400Z,31.60
2023-03-06T05:50:00.676Z,30.80
2023-03-06T05:50:55.896Z,39.00
2023-03-06T05:51:51.749Z,35.70
2023-03-06T05:52:46.960Z,31.30
2023-03-06T05:53:42.524Z,35.50
2023-03-06T05:54:38.067Z,33.90
2023-03-06T05:55:33.368Z,31.50
2023-03-06T05:56:29.048Z,43.00
2023-03-06T05:57:24.321Z,31.30
2023-03-06T05:58:19.947Z,29.90
2023-03-06T05:59:15.458Z,37.00
2023-03-06T06:00:10.697Z,29.90
2023-03-06T06:01:05.975Z,37.20
2023-03-06T06:02:02.503Z,35.90
2023-03-06T06:02:57.877Z,31.60
2023-03-06T06:03:53.061Z,33.10
2023-03-06T06:04:48.017Z,30.90
2023-03-06T06:05:43.029Z,31.70
2023-03-06T06:06:38.047Z,36.40
2023-03-06T06:07:33.069Z,35.30
2023-03-06T06:08:28.116Z,37.10
2023-03-06T06:09:23.174Z,42.70
2023-03-06T06:10:18.233Z,31.70
2023-03-06T06:11:13.277Z,30.70
2023-03-06T06:12:08.454Z,32.60
2023-03-06T06:13:03.685Z,32.00
2023-03-06T06:13:58.650Z,35.40
2023-03-06T06:14:53.700Z,33.10
2023-03-06T06:15:48.842Z,32.50
2023-03-06T06:16:43.772Z,34.20
2023-03-06T06:17:42.015Z,31.40
2023-03-06T06:18:39.281Z,27.10
2023-03-06T06:19:32.034Z,34.90
2023-03-06T06:20:27.111Z,35.80
2023-03-06T06:21:22.201Z,36.40
2023-03-06T06:22:17.286Z,29.50
2023-03-06T06:23:12.448Z,29.90
2023-03-06T06:24:07.457Z,30.20
2023-03-06T06:25:02.464Z,30.80
2023-03-06T06:25:57.499Z,29.40
2023-03-06T06:26:52.812Z,33.00
2023-03-06T06:27:48.166Z,28.50
2023-03-06T06:28:43.593Z,34.20
2023-03-06T06:29:38.967Z,34.20
2023-03-06T06:30:34.102Z,31.50
2023-03-06T06:31:29.278Z,31.20
2023-03-06T06:32:24.325Z,41.40
2023-03-06T06:33:19.602Z,31.60
2023-03-06T06:34:14.470Z,32.20
2023-03-06T06:35:13.210Z,31.60
2023-03-06T06:36:08.322Z,36.80
2023-03-06T06:37:03.417Z,33.30
2023-03-06T06:37:58.737Z,33.90
2023-03-06T06:38:53.525Z,31.20
2023-03-06T06:39:48.653Z,32.50
2023-03-06T06:40:43.723Z,31.10
2023-03-06T06:41:56.851Z,31.70
2023-03-06T06:42:39.667Z,29.20
2023-03-06T06:43:30.110Z,23.70
2023-03-06T06:44:25.512Z,25.70
2023-03-06T06:45:20.889Z,30.70
2023-03-06T06:46:56.187Z,35.90
2023-03-06T06:47:28.159Z,29.10
2023-03-06T06:48:10.759Z,31.90
2023-03-06T06:49:04.951Z,28.50
2023-03-06T06:50:00.418Z,29.80
2023-03-06T06:50:55.752Z,29.80
2023-03-06T06:51:51.336Z,31.70
2023-03-06T06:52:46.910Z,35.00
2023-03-06T06:53:42.007Z,27.60
2023-03-06T06:54:37.375Z,29.40
2023-03-06T06:55:32.747Z,32.20
2023-03-06T06:56:28.169Z,29.40
2023-03-06T06:57:23.491Z,29.70
2023-03-06T06:58:19.017Z,28.40
2023-03-06T06:59:17.212Z,27.00
2023-03-06T07:00:10.214Z,30.50
2023-03-06T07:01:05.620Z,30.30
2023-03-06T07:02:00.691Z,33.20
2023-03-06T07:02:55.761Z,27.10
2023-03-06T07:03:50.898Z,29.80
2023-03-06T07:05:02.085Z,27.20
2023-03-06T07:05:42.115Z,33.00
2023-03-06T07:06:36.144Z,28.10
2023-03-06T07:07:31.288Z,27.40
2023-03-06T07:08:26.340Z,26.00
2023-03-06T07:09:21.393Z,25.00
2023-03-06T07:10:16.516Z,29.40
2023-03-06T07:11:12.644Z,30.70
2023-03-06T07:12:08.031Z,29.90
2023-03-06T07:13:03.601Z,35.80
2023-03-06T07:13:58.837Z,25.30
2023-03-06T07:14:54.384Z,33.80
2023-03-06T07:15:49.813Z,24.10
2023-03-06T07:16:45.459Z,25.60
2023-03-06T07:17:40.990Z,28.90
2023-03-06T07:18:36.148Z,25.50
2023-03-06T07:19:31.617Z,25.20
2023-03-06T07:20:26.944Z,25.60
2023-03-06T07:21:22.295Z,27.50
2023-03-06T07:22:17.704Z,23.40
2023-03-06T07:23:13.228Z,23.20
2023-03-06T07:24:08.539Z,29.10
2023-03-06T07:25:03.835Z,30.40
2023-03-06T07:25:59.284Z,26.40
2023-03-06T07:26:54.666Z,33.20
2023-03-06T07:27:53.788Z,25.10
2023-03-06T07:28:52.393Z,24.40
2023-03-06T07:29:41.926Z,22.00
2023-03-06T07:30:36.348Z,24.60
2023-03-06T07:31:31.775Z,30.40
2023-03-06T07:32:29.850Z,23.20
2023-03-06T07:33:25.128Z,24.90
2023-03-06T07:34:20.508Z,21.30
2023-03-06T07:35:20.037Z,23.60
2023-03-06T07:36:13.831Z,23.90
2023-03-06T07:37:06.377Z,29.70
2023-03-06T07:38:01.656Z,23.30
2023-03-06T07:38:56.670Z,20.90
2023-03-06T07:39:51.785Z,24.00
2023-03-06T07:40:46.900Z,21.20
2023-03-06T07:41:41.888Z,23.60
2023-03-06T07:42:37.057Z,18.40
2023-03-06T07:43:32.349Z,22.60
2023-03-06T07:44:27.502Z,24.90
2023-03-06T07:45:22.489Z,23.90
2023-03-06T07:46:17.589Z,20.30
2023-03-06T07:47:12.706Z,26.70
2023-03-06T07:48:07.833Z,25.20
2023-03-06T07:49:02.824Z,26.20
2023-03-06T07:49:58.025Z,25.20
2023-03-06T07:50:53.148Z,20.80
2023-03-06T07:51:48.542Z,20.80
2023-03-06T07:52:44.049Z,22.50
2023-03-06T07:53:39.453Z,20.20
2023-03-06T07:54:34.843Z,23.70
2023-03-06T07:55:30.354Z,20.20
2023-03-06T07:56:25.654Z,21.40
2023-03-06T07:57:21.066Z,20.70
2023-03-06T07:58:16.517Z,21.20
2023-03-06T07:59:11.972Z,20.60
2023-03-06T08:00:07.529Z,21.30
2023-03-06T08:01:03.010Z,20.30
2023-03-06T08:01:58.405Z,19.50
2023-03-06T08:02:53.978Z,20.20
2023-03-06T08:03:49.285Z,21.90
2023-03-06T08:04:44.734Z,17.60
2023-03-06T08:05:40.076Z,19.40
2023-03-06T08:06:39.315Z,22.90
2023-03-06T08:07:34.753Z,23.00
2023-03-06T08:08:30.258Z,19.40
2023-03-06T08:09:25.603Z,19.10
2023-03-06T08:10:20.976Z,20.70
2023-03-06T08:11:16.361Z,21.90
2023-03-06T08:12:11.948Z,22.50
2023-03-06T08:13:07.181Z,21.10
2023-03-06T08:14:02.732Z,19.60
2023-03-06T08:14:58.067Z,21.50
2023-03-06T08:15:53.577Z,16.90
2023-03-06T08:16:48.872Z,24.90
2023-03-06T08:17:44.320Z,22.10
2023-03-06T08:18:40.044Z,20.90
2023-03-06T08:19:35.515Z,17.50
2023-03-06T08:20:30.385Z,18.50
2023-03-06T08:21:25.387Z,19.10
2023-03-06T08:22:20.756Z,21.70
2023-03-06T08:23:15.753Z,24.80
2023-03-06T08:24:10.777Z,23.60
2023-03-06T08:25:05.806Z,24.00
2023-03-06T08:26:00.850Z,16.10
2023-03-06T08:26:56.031Z,23.70
2023-03-06T08:27:51.112Z,19.20
2023-03-06T08:28:46.138Z,22.20
2023-03-06T08:29:42.863Z,18.90
2023-03-06T08:30:37.861Z,25.40
2023-03-06T08:31:32.948Z,18.50
2023-03-06T08:32:27.949Z,22.60
2023-03-06T08:33:23.778Z,26.50
2023-03-06T08:34:19.231Z,24.90
2023-03-06T08:35:14.841Z,18.30
2023-03-06T08:36:10.284Z,23.50
2023-03-06T08:37:05.918Z,19.60
2023-03-06T08:38:01.105Z,22.70
2023-03-06T08:38:56.565Z,28.20
2023-03-06T08:39:52.105Z,24.40
2023-03-06T08:40:47.426Z,22.10
2023-03-06T08:41:43.140Z,22.60
2023-03-06T08:42:38.374Z,18.30
2023-03-06T08:43:33.952Z,21.00
2023-03-06T08:44:29.406Z,20.20
2023-03-06T08:45:24.888Z,20.30
2023-03-06T08:46:20.364Z,18.80
2023-03-06T08:47:16.109Z,20.30
2023-03-06T08:48:11.302Z,17.00
2023-03-06T08:49:06.868Z,21.40
2023-03-06T08:50:02.451Z,16.50
2023-03-06T08:50:57.787Z,20.10
2023-03-06T08:51:53.383Z,16.50
2023-03-06T08:52:48.795Z,19.20
2023-03-06T08:53:44.583Z,18.00
2023-03-06T08:54:39.914Z,23.40
2023-03-06T08:55:34.933Z,24.50
2023-03-06T08:56:29.980Z,19.30
2023-03-06T08:57:25.040Z,16.50
2023-03-06T08:58:20.108Z,15.00
2023-03-06T08:59:15.123Z,16.60
2023-03-06T09:00:10.143Z,20.90
2023-03-06T09:01:05.223Z,16.10
2023-03-06T09:02:00.235Z,19.30
2023-03-06T09:02:55.317Z,15.10
2023-03-06T09:03:50.373Z,21.00
2023-03-06T09:04:45.400Z,21.10
2023-03-06T09:05:40.441Z,18.50
2023-03-06T09:06:35.653Z,18.30
2023-03-06T09:07:30.530Z,17.50
2023-03-06T09:08:26.139Z,18.30
2023-03-06T09:09:21.144Z,17.90
2023-03-06T09:10:16.412Z,21.80
2023-03-06T09:11:11.369Z,20.10
2023-03-06T09:12:06.423Z,18.20
2023-03-06T09:13:01.454Z,20.40
2023-03-06T09:13:56.543Z,18.10
2023-03-06T09:14:51.700Z,17.20
2023-03-06T09:15:46.749Z,17.50
2023-03-06T09:16:41.971Z,21.60
2023-03-06T09:17:36.901Z,20.10
2023-03-06T09:18:33.041Z,14.10
2023-03-06T09:19:28.488Z,13.40
2023-03-06T09:20:24.087Z,15.40
2023-03-06T09:21:19.420Z,15.90
2023-03-06T09:22:14.898Z,17.70
2023-03-06T09:23:10.485Z,14.10
2023-03-06T09:24:05.958Z,15.40
2023-03-06T09:25:01.391Z,15.70
2023-03-06T09:25:56.853Z,15.00
2023-03-06T09:26:52.325Z,17.30
2023-03-06T09:27:51.398Z,16.80
2023-03-06T09:28:44.351Z,16.90
2023-03-06T09:29:38.811Z,15.80
2023-03-06T09:30:34.284Z,19.00
2023-03-06T09:31:30.438Z,17.40
2023-03-06T09:32:25.899Z,15.00
2023-03-06T09:33:21.344Z,11.10
2023-03-06T09:34:16.929Z,11.30
2023-03-06T09:35:12.354Z,17.40
2023-03-06T09:36:07.829Z,15.90
2023-03-06T09:37:02.877Z,16.00
2023-03-06T09:37:57.909Z,17.00
2023-03-06T09:38:52.969Z,16.00
2023-03-06T09:39:47.995Z,14.80
2023-03-06T09:40:43.014Z,14.20
2023-03-06T09:41:38.122Z,13.00
2023-03-06T09:42:33.564Z,13.60
2023-03-06T09:43:28.159Z,12.60
2023-03-06T09:44:27.136Z,15.50
2023-03-06T09:45:22.168Z,15.00
2023-03-06T09:46:17.353Z,21.40
2023-03-06T09:47:12.418Z,15.30
2023-03-06T09:48:07.435Z,13.40
2023-03-06T09:49:02.503Z,18.00
2023-03-06T09:49:57.555Z,14.00
2023-03-06T09:50:52.607Z,19.50
2023-03-06T09:51:47.882Z,18.10
2023-03-06T09:52:42.768Z,15.40
2023-03-06T09:53:37.790Z,15.60
2023-03-06T09:54:34.063Z,16.60
2023-03-06T09:55:29.497Z,17.60
2023-03-06T09:56:25.106Z,17.70
2023-03-06T09:57:20.774Z,14.80
2023-03-06T09:58:16.101Z,12.70
2023-03-06T09:59:11.618Z,22.80
2023-03-06T10:00:07.000Z,19.70
2023-03-06T10:01:02.449Z,18.20
2023-03-06T10:01:58.109Z,14.00
2023-03-06T10:02:53.601Z,14.80
2023-03-06T10:03:48.879Z,16.90
2023-03-06T10:04:44.359Z,15.10
2023-03-06T10:05:39.971Z,14.50
2023-03-06T10:06:35.280Z,22.90
2023-03-06T10:07:34.282Z,15.90
2023-03-06T10:08:29.635Z,19.00
2023-03-06T10:09:25.091Z,13.60
2023-03-06T10:10:20.659Z,15.80
2023-03-06T10:11:16.077Z,17.60
2023-03-06T10:12:11.600Z,21.00
2023-03-06T10:13:06.929Z,14.10
2023-03-06T10:14:02.489Z,14.70
2023-03-06T10:14:57.977Z,17.90
2023-03-06T10:15:53.462Z,16.70
2023-03-06T10:16:49.087Z,17.30
2023-03-06T10:17:44.423Z,13.20
2023-03-06T10:18:39.865Z,14.40
2023-03-06T10:19:35.286Z,16.10
2023-03-06T10:20:30.747Z,17.90
2023-03-06T10:21:25.764Z,14.20
2023-03-06T10:22:20.970Z,16.60
2023-03-06T10:23:15.904Z,18.10
2023-03-06T10:24:11.011Z,24.40
2023-03-06T10:25:06.032Z,15.50
2023-03-06T10:26:01.198Z,15.70
2023-03-06T10:26:56.314Z,16.00
2023-03-06T10:27:51.202Z,12.70
2023-03-06T10:28:46.361Z,14.30
2023-03-06T10:29:43.679Z,13.30
2023-03-06T10:30:37.908Z,17.50
2023-03-06T10:31:33.013Z,17.10
2023-03-06T10:32:34.204Z,12.10
2023-03-06T10:33:24.180Z,11.70
2023-03-06T10:34:18.808Z,11.80
2023-03-06T10:35:14.217Z,11.70
2023-03-06T10:36:09.653Z,12.00
2023-03-06T10:37:05.208Z,9.80
2023-03-06T10:38:00.759Z,10.90
2023-03-06T10:38:56.187Z,11.60
2023-03-06T10:39:51.630Z,12.20
2023-03-06T10:40:47.076Z,9.90
2023-03-06T10:41:44.118Z,13.50
2023-03-06T10:42:37.917Z,14.30
2023-03-06T10:43:36.197Z,12.80
2023-03-06T10:44:29.028Z,10.30
2023-03-06T10:45:24.448Z,14.20
2023-03-06T10:46:20.102Z,11.90
2023-03-06T10:47:15.056Z,9.20
2023-03-06T10:48:10.088Z,11.10
2023-03-06T10:49:05.170Z,9.60
2023-03-06T10:50:00.443Z,14.10
2023-03-06T10:50:55.520Z,11.90
2023-03-06T10:51:50.614Z,11.20
2023-03-06T10:52:45.663Z,10.20
2023-03-06T10:53:40.705Z,9.40
2023-03-06T10:54:35.825Z,11.60
2023-03-06T10:55:30.923Z,10.70
2023-03-06T10:56:26.001Z,12.30
2023-03-06T10:57:21.068Z,11.00
2023-03-06T10:58:16.131Z,12.10
2023-03-06T10:59:11.237Z,8.70
2023-03-06T11:00:06.856Z,11.80
2023-03-06T11:01:02.367Z,11.00
2023-03-06T11:01:57.943Z,9.70
2023-03-06T11:02:53.408Z,9.90
2023-03-06T11:03:48.928Z,8.40
2023-03-06T11:04:44.381Z,8.80
2023-03-06T11:05:39.849Z,13.90
2023-03-06T11:06:34.985Z,10.80
2023-03-06T11:07:29.876Z,9.60
2023-03-06T11:08:24.928Z,10.50
2023-03-06T11:09:23.075Z,11.90
2023-03-06T11:10:18.218Z,15.10
2023-03-06T11:11:13.101Z,14.70
2023-03-06T11:12:08.341Z,11.70
2023-03-06T11:13:03.231Z,15.80
2023-03-06T11:13:58.311Z,12.90
2023-03-06T11:14:53.332Z,12.50
2023-03-06T11:15:48.496Z,9.90
2023-03-06T11:16:43.605Z,10.70
2023-03-06T11:17:38.547Z,9.10
2023-03-06T11:18:33.556Z,10.70
2023-03-06T11:19:28.647Z,10.90
2023-03-06T11:20:23.719Z,12.50
2023-03-06T11:21:19.124Z,12.30
2023-03-06T11:22:14.548Z,10.20
2023-03-06T11:23:10.052Z,13.20
2023-03-06T11:24:05.491Z,16.80
2023-03-06T11:25:00.998Z,11.20
2023-03-06T11:25:56.333Z,10.30
2023-03-06T11:26:51.812Z,13.30
2023-03-06T11:27:47.346Z,10.30
2023-03-06T11:28:42.791Z,12.20
2023-03-06T11:29:38.989Z,11.40
2023-03-06T11:30:33.648Z,8.90
2023-03-06T11:31:29.280Z,11.00
2023-03-06T11:32:24.592Z,10.20
2023-03-06T11:33:19.892Z,11.40
2023-03-06T11:34:15.374Z,13.30
2023-03-06T11:35:10.788Z,11.40
2023-03-06T11:36:06.241Z,11.20
2023-03-06T11:37:01.663Z,9.50
2023-03-06T11:37:57.201Z,10.80
2023-03-06T11:38:52.626Z,13.30
2023-03-06T11:39:48.079Z,9.20
2023-03-06T11:40:43.704Z,10.40
2023-03-06T11:41:40.152Z,8.60
2023-03-06T11:42:35.437Z,14.10
2023-03-06T11:43:30.893Z,12.50
2023-03-06T11:44:26.411Z,10.70
2023-03-06T11:45:23.800Z,10.70
2023-03-06T11:46:19.331Z,11.90
2023-03-06T11:47:15.076Z,12.30
2023-03-06T11:48:10.515Z,10.30
2023-03-06T11:49:06.026Z,12.00
2023-03-06T11:50:01.632Z,10.70
2023-03-06T11:50:57.014Z,12.40
2023-03-06T11:51:52.492Z,11.90
2023-03-06T11:52:48.120Z,8.70
2023-03-06T11:53:43.586Z,11.00